sensor_id;sensor_type;location;lat;lon;timestamp;temperature;humidity
20141;DHT22;10231;47.702;9.826;2022-10-17T00:01:32;11.90;99.90
20141;DHT22;10231;47.702;9.826;2022-10-17T00:03:58;11.80;99.90
20141;DHT22;10231;47.702;9.826;2022-10-17T00:06:23;11.90;99.90
20141;DHT22;10231;47.702;9.826;2022-10-17T00:08:49;11.90;99.90
20141;DHT22;10231;47.702;9.826;2022-10-17T00:11:21;12.00;99.90
20141;DHT22;10231;47.702;9.826;2022-10-17T00:13:48;11.90;99.90
20141;DHT22;10231;47.702;9.826;2022-10-17T00:16:21;12.00;99.90
20141;DHT22;10231;47.702;9.826;2022-10-17T00:18:47;12.00;99.90
20141;DHT22;10231;47.702;9.826;2022-10-17T00:21:18;12.00;99.90
20141;DHT22;10231;47.702;9.826;2022-10-17T00:23:44;11.80;99.90
20141;DHT22;10231;47.702;9.826;2022-10-17T00:26:10;11.70;99.90
20141;DHT22;10231;47.702;9.826;2022-10-17T00:28:35;11.70;99.90
20141;DHT22;10231;47.702;9.826;2022-10-17T00:31:04;11.70;99.90
20141;DHT22;10231;47.702;9.826;2022-10-17T00:33:31;11.50;99.90
20141;DHT22;10231;47.702;9.826;2022-10-17T00:36:05;11.50;99.90
20141;DHT22;10231;47.702;9.826;2022-10-17T00:38:31;11.50;99.90
20141;DHT22;10231;47.702;9.826;2022-10-17T00:40:57;11.50;99.90
20141;DHT22;10231;47.702;9.826;2022-10-17T00:43:23;11.50;99.90
20141;DHT22;10231;47.702;9.826;2022-10-17T00:45:48;11.50;99.90
20141;DHT22;10231;47.702;9.826;2022-10-17T00:48:15;11.40;99.90
20141;DHT22;10231;47.702;9.826;2022-10-17T00:50:43;11.40;99.90
20141;DHT22;10231;47.702;9.826;2022-10-17T00:53:10;11.30;99.90
20141;DHT22;10231;47.702;9.826;2022-10-17T00:55:44;11.30;99.90
20141;DHT22;10231;47.702;9.826;2022-10-17T00:58:11;11.40;99.90
20141;DHT22;10231;47.702;9.826;2022-10-17T01:00:37;11.40;99.90
20141;DHT22;10231;47.702;9.826;2022-10-17T01:03:03;11.40;99.90
20141;DHT22;10231;47.702;9.826;2022-10-17T01:05:28;11.40;99.90
20141;DHT22;10231;47.702;9.826;2022-10-17T01:07:54;11.30;99.90
20141;DHT22;10231;47.702;9.826;2022-10-17T01:10:21;11.30;99.90
20141;DHT22;10231;47.702;9.826;2022-10-17T01:12:59;11.30;99.90
20141;DHT22;10231;47.702;9.826;2022-10-17T01:18:33;11.30;99.90
20141;DHT22;10231;47.702;9.826;2022-10-17T01:34:54;11.00;99.90
20141;DHT22;10231;47.702;9.826;2022-10-17T01:37:31;11.00;99.90
20141;DHT22;10231;47.702;9.826;2022-10-17T01:42:45;11.00;99.90
20141;DHT22;10231;47.702;9.826;2022-10-17T01:45:20;11.10;99.90
20141;DHT22;10231;47.702;9.826;2022-10-17T01:47:51;11.10;99.90
20141;DHT22;10231;47.702;9.826;2022-10-17T01:50:35;11.10;99.90
20141;DHT22;10231;47.702;9.826;2022-10-17T01:53:07;11.10;99.90
20141;DHT22;10231;47.702;9.826;2022-10-17T01:55:36;11.10;99.90
20141;DHT22;10231;47.702;9.826;2022-10-17T02:00:47;11.10;99.90
20141;DHT22;10231;47.702;9.826;2022-10-17T02:03:17;11.00;99.90
20141;DHT22;10231;47.702;9.826;2022-10-17T02:05:44;10.90;99.90
20141;DHT22;10231;47.702;9.826;2022-10-17T02:08:11;11.00;99.90
20141;DHT22;10231;47.702;9.826;2022-10-17T02:11:11;10.90;99.90
20141;DHT22;10231;47.702;9.826;2022-10-17T02:13:49;10.90;99.90
20141;DHT22;10231;47.702;9.826;2022-10-17T02:25:25;10.90;99.90
20141;DHT22;10231;47.702;9.826;2022-10-17T02:27:52;10.90;99.90
20141;DHT22;10231;47.702;9.826;2022-10-17T02:30:22;10.90;99.90
20141;DHT22;10231;47.702;9.826;2022-10-17T02:33:10;10.80;99.90
20141;DHT22;10231;47.702;9.826;2022-10-17T02:35:40;10.70;99.90
20141;DHT22;10231;47.702;9.826;2022-10-17T02:38:09;10.70;99.90
20141;DHT22;10231;47.702;9.826;2022-10-17T02:40:36;10.60;99.90
20141;DHT22;10231;47.702;9.826;2022-10-17T02:43:04;10.60;99.90
20141;DHT22;10231;47.702;9.826;2022-10-17T02:45:30;10.60;99.90
20141;DHT22;10231;47.702;9.826;2022-10-17T02:48:08;10.60;99.90
20141;DHT22;10231;47.702;9.826;2022-10-17T02:51:03;10.60;99.90
20141;DHT22;10231;47.702;9.826;2022-10-17T02:53:37;10.60;99.90
20141;DHT22;10231;47.702;9.826;2022-10-17T02:56:10;10.60;99.90
20141;DHT22;10231;47.702;9.826;2022-10-17T02:58:39;10.50;99.90
20141;DHT22;10231;47.702;9.826;2022-10-17T03:01:06;10.50;99.90
20141;DHT22;10231;47.702;9.826;2022-10-17T03:03:32;10.50;99.90
20141;DHT22;10231;47.702;9.826;2022-10-17T03:05:57;10.50;99.90
20141;DHT22;10231;47.702;9.826;2022-10-17T03:08:23;10.40;99.90
20141;DHT22;10231;47.702;9.826;2022-10-17T03:10:49;10.50;99.90
20141;DHT22;10231;47.702;9.826;2022-10-17T03:13:16;10.60;99.90
20141;DHT22;10231;47.702;9.826;2022-10-17T03:15:42;10.50;99.90
20141;DHT22;10231;47.702;9.826;2022-10-17T03:18:07;10.40;99.90
20141;DHT22;10231;47.702;9.826;2022-10-17T03:20:33;10.50;99.90
20141;DHT22;10231;47.702;9.826;2022-10-17T03:22:58;10.50;99.90
20141;DHT22;10231;47.702;9.826;2022-10-17T03:25:24;10.50;99.90
20141;DHT22;10231;47.702;9.826;2022-10-17T03:27:50;10.40;99.90
20141;DHT22;10231;47.702;9.826;2022-10-17T03:30:16;10.40;99.90
20141;DHT22;10231;47.702;9.826;2022-10-17T03:32:42;10.40;99.90
20141;DHT22;10231;47.702;9.826;2022-10-17T03:35:07;10.30;99.90
20141;DHT22;10231;47.702;9.826;2022-10-17T03:37:33;10.40;99.90
20141;DHT22;10231;47.702;9.826;2022-10-17T03:39:58;10.30;99.90
20141;DHT22;10231;47.702;9.826;2022-10-17T03:42:24;10.40;99.90
20141;DHT22;10231;47.702;9.826;2022-10-17T03:44:50;10.30;99.90
20141;DHT22;10231;47.702;9.826;2022-10-17T03:47:15;10.30;99.90
20141;DHT22;10231;47.702;9.826;2022-10-17T03:49:41;10.40;99.90
20141;DHT22;10231;47.702;9.826;2022-10-17T03:52:11;10.40;99.90
20141;DHT22;10231;47.702;9.826;2022-10-17T03:54:36;10.40;99.90
20141;DHT22;10231;47.702;9.826;2022-10-17T03:57:02;10.50;99.90
20141;DHT22;10231;47.702;9.826;2022-10-17T03:59:29;10.50;99.90
20141;DHT22;10231;47.702;9.826;2022-10-17T04:01:54;10.50;99.90
20141;DHT22;10231;47.702;9.826;2022-10-17T04:04:20;10.40;99.90
20141;DHT22;10231;47.702;9.826;2022-10-17T04:06:46;10.30;99.90
20141;DHT22;10231;47.702;9.826;2022-10-17T04:09:11;10.30;99.90
20141;DHT22;10231;47.702;9.826;2022-10-17T04:11:37;10.20;99.90
20141;DHT22;10231;47.702;9.826;2022-10-17T04:14:03;10.20;99.90
20141;DHT22;10231;47.702;9.826;2022-10-17T04:16:29;10.20;99.90
20141;DHT22;10231;47.702;9.826;2022-10-17T04:18:56;10.30;99.90
20141;DHT22;10231;47.702;9.826;2022-10-17T04:21:23;10.40;99.90
20141;DHT22;10231;47.702;9.826;2022-10-17T04:23:57;10.30;99.90
20141;DHT22;10231;47.702;9.826;2022-10-17T04:26:23;10.20;99.90
20141;DHT22;10231;47.702;9.826;2022-10-17T04:28:49;10.20;99.90
20141;DHT22;10231;47.702;9.826;2022-10-17T04:31:15;10.20;99.90
20141;DHT22;10231;47.702;9.826;2022-10-17T04:33:41;10.20;99.90
20141;DHT22;10231;47.702;9.826;2022-10-17T04:36:10;10.10;99.90
20141;DHT22;10231;47.702;9.826;2022-10-17T04:38:36;10.00;99.90
20141;DHT22;10231;47.702;9.826;2022-10-17T04:41:04;10.10;99.90
20141;DHT22;10231;47.702;9.826;2022-10-17T04:43:31;10.10;99.90
20141;DHT22;10231;47.702;9.826;2022-10-17T04:45:59;10.10;99.90
20141;DHT22;10231;47.702;9.826;2022-10-17T04:48:26;10.00;99.90
20141;DHT22;10231;47.702;9.826;2022-10-17T04:50:54;10.00;99.90
20141;DHT22;10231;47.702;9.826;2022-10-17T04:53:20;9.90;99.90
20141;DHT22;10231;47.702;9.826;2022-10-17T04:55:45;10.00;99.90
20141;DHT22;10231;47.702;9.826;2022-10-17T04:58:11;10.10;99.90
20141;DHT22;10231;47.702;9.826;2022-10-17T05:00:36;10.00;99.90
20141;DHT22;10231;47.702;9.826;2022-10-17T05:03:02;10.00;99.90
20141;DHT22;10231;47.702;9.826;2022-10-17T05:05:28;10.00;99.90
20141;DHT22;10231;47.702;9.826;2022-10-17T05:07:53;9.90;99.90
20141;DHT22;10231;47.702;9.826;2022-10-17T05:10:19;9.80;99.90
20141;DHT22;10231;47.702;9.826;2022-10-17T05:12:46;9.80;99.90
20141;DHT22;10231;47.702;9.826;2022-10-17T05:15:12;9.70;99.90
20141;DHT22;10231;47.702;9.826;2022-10-17T05:17:38;9.70;99.90
20141;DHT22;10231;47.702;9.826;2022-10-17T05:20:04;9.70;99.90
20141;DHT22;10231;47.702;9.826;2022-10-17T05:22:30;9.80;99.90
20141;DHT22;10231;47.702;9.826;2022-10-17T05:24:55;9.90;99.90
20141;DHT22;10231;47.702;9.826;2022-10-17T05:27:21;9.90;99.90
20141;DHT22;10231;47.702;9.826;2022-10-17T05:29:46;9.80;99.90
20141;DHT22;10231;47.702;9.826;2022-10-17T05:32:14;9.80;99.90
20141;DHT22;10231;47.702;9.826;2022-10-17T05:34:39;9.80;99.90
20141;DHT22;10231;47.702;9.826;2022-10-17T05:37:05;9.70;99.90
20141;DHT22;10231;47.702;9.826;2022-10-17T05:39:31;9.80;99.90
20141;DHT22;10231;47.702;9.826;2022-10-17T05:41:56;9.80;99.90
20141;DHT22;10231;47.702;9.826;2022-10-17T05:44:22;9.70;99.90
20141;DHT22;10231;47.702;9.826;2022-10-17T05:46:48;9.70;99.90
20141;DHT22;10231;47.702;9.826;2022-10-17T05:49:14;9.70;99.90
20141;DHT22;10231;47.702;9.826;2022-10-17T05:51:40;9.70;99.90
20141;DHT22;10231;47.702;9.826;2022-10-17T05:54:06;9.70;99.90
20141;DHT22;10231;47.702;9.826;2022-10-17T05:56:32;9.70;99.90
20141;DHT22;10231;47.702;9.826;2022-10-17T05:58:58;9.70;99.90
20141;DHT22;10231;47.702;9.826;2022-10-17T06:01:23;9.70;99.90
20141;DHT22;10231;47.702;9.826;2022-10-17T06:03:49;9.70;99.90
20141;DHT22;10231;47.702;9.826;2022-10-17T06:06:16;9.70;99.90
20141;DHT22;10231;47.702;9.826;2022-10-17T06:08:42;9.70;99.90
20141;DHT22;10231;47.702;9.826;2022-10-17T06:11:08;9.70;99.90
20141;DHT22;10231;47.702;9.826;2022-10-17T06:13:33;9.60;99.90
20141;DHT22;10231;47.702;9.826;2022-10-17T06:15:59;9.60;99.90
20141;DHT22;10231;47.702;9.826;2022-10-17T06:18:25;9.60;99.90
20141;DHT22;10231;47.702;9.826;2022-10-17T06:20:51;9.70;99.90
20141;DHT22;10231;47.702;9.826;2022-10-17T06:23:17;9.70;99.90
20141;DHT22;10231;47.702;9.826;2022-10-17T06:25:43;9.70;99.90
20141;DHT22;10231;47.702;9.826;2022-10-17T06:28:08;9.70;99.90
20141;DHT22;10231;47.702;9.826;2022-10-17T06:30:37;9.70;99.90
20141;DHT22;10231;47.702;9.826;2022-10-17T06:33:03;9.70;99.90
20141;DHT22;10231;47.702;9.826;2022-10-17T06:35:30;9.80;99.90
20141;DHT22;10231;47.702;9.826;2022-10-17T06:37:56;9.90;99.90
20141;DHT22;10231;47.702;9.826;2022-10-17T06:40:21;9.90;99.90
20141;DHT22;10231;47.702;9.826;2022-10-17T06:42:47;10.00;99.90
20141;DHT22;10231;47.702;9.826;2022-10-17T06:45:13;10.10;99.90
20141;DHT22;10231;47.702;9.826;2022-10-17T06:47:39;10.20;99.90
20141;DHT22;10231;47.702;9.826;2022-10-17T06:50:05;10.20;99.90
20141;DHT22;10231;47.702;9.826;2022-10-17T06:52:30;10.20;99.90
20141;DHT22;10231;47.702;9.826;2022-10-17T06:54:56;10.20;99.90
20141;DHT22;10231;47.702;9.826;2022-10-17T06:57:21;10.20;99.90
20141;DHT22;10231;47.702;9.826;2022-10-17T06:59:47;10.20;99.90
20141;DHT22;10231;47.702;9.826;2022-10-17T07:02:12;10.20;99.90
20141;DHT22;10231;47.702;9.826;2022-10-17T07:04:38;10.20;99.90
20141;DHT22;10231;47.702;9.826;2022-10-17T07:07:04;10.30;99.90
20141;DHT22;10231;47.702;9.826;2022-10-17T07:09:30;10.30;99.90
20141;DHT22;10231;47.702;9.826;2022-10-17T07:11:57;10.30;99.90
20141;DHT22;10231;47.702;9.826;2022-10-17T07:14:23;10.40;99.90
20141;DHT22;10231;47.702;9.826;2022-10-17T07:16:59;10.50;99.90
20141;DHT22;10231;47.702;9.826;2022-10-17T07:19:25;10.50;99.90
20141;DHT22;10231;47.702;9.826;2022-10-17T07:21:51;10.60;99.90
20141;DHT22;10231;47.702;9.826;2022-10-17T07:24:17;10.60;99.90
20141;DHT22;10231;47.702;9.826;2022-10-17T07:26:43;10.70;99.90
20141;DHT22;10231;47.702;9.826;2022-10-17T07:29:08;10.90;99.90
20141;DHT22;10231;47.702;9.826;2022-10-17T07:31:34;10.90;99.90
20141;DHT22;10231;47.702;9.826;2022-10-17T07:34:00;11.00;99.90
20141;DHT22;10231;47.702;9.826;2022-10-17T07:36:25;11.10;99.90
20141;DHT22;10231;47.702;9.826;2022-10-17T07:38:51;11.20;99.90
20141;DHT22;10231;47.702;9.826;2022-10-17T07:41:17;11.30;99.90
20141;DHT22;10231;47.702;9.826;2022-10-17T07:43:44;11.40;99.90
20141;DHT22;10231;47.702;9.826;2022-10-17T07:46:10;11.50;99.90
20141;DHT22;10231;47.702;9.826;2022-10-17T07:48:39;11.60;99.90
20141;DHT22;10231;47.702;9.826;2022-10-17T07:51:06;11.70;99.90
20141;DHT22;10231;47.702;9.826;2022-10-17T07:53:37;11.80;99.90
20141;DHT22;10231;47.702;9.826;2022-10-17T07:56:05;11.80;99.90
20141;DHT22;10231;47.702;9.826;2022-10-17T07:58:31;11.90;99.90
20141;DHT22;10231;47.702;9.826;2022-10-17T08:01:05;12.00;99.90
20141;DHT22;10231;47.702;9.826;2022-10-17T08:03:31;12.10;99.90
20141;DHT22;10231;47.702;9.826;2022-10-17T08:05:58;12.20;99.90
20141;DHT22;10231;47.702;9.826;2022-10-17T08:08:23;12.40;99.90
20141;DHT22;10231;47.702;9.826;2022-10-17T08:10:49;12.50;99.90
20141;DHT22;10231;47.702;9.826;2022-10-17T08:13:15;12.60;99.90
20141;DHT22;10231;47.702;9.826;2022-10-17T08:15:40;12.70;99.90
20141;DHT22;10231;47.702;9.826;2022-10-17T08:18:06;12.80;99.90
20141;DHT22;10231;47.702;9.826;2022-10-17T08:20:32;13.00;99.90
20141;DHT22;10231;47.702;9.826;2022-10-17T08:22:58;13.10;99.90
20141;DHT22;10231;47.702;9.826;2022-10-17T08:25:23;13.20;99.90
20141;DHT22;10231;47.702;9.826;2022-10-17T08:27:49;13.30;99.90
20141;DHT22;10231;47.702;9.826;2022-10-17T08:30:15;13.40;99.90
20141;DHT22;10231;47.702;9.826;2022-10-17T08:32:41;13.50;99.90
20141;DHT22;10231;47.702;9.826;2022-10-17T08:35:07;13.70;99.90
20141;DHT22;10231;47.702;9.826;2022-10-17T08:37:33;13.90;99.90
20141;DHT22;10231;47.702;9.826;2022-10-17T08:39:58;14.00;99.90
20141;DHT22;10231;47.702;9.826;2022-10-17T08:43:04;14.10;99.90
20141;DHT22;10231;47.702;9.826;2022-10-17T08:47:58;14.40;99.90
20141;DHT22;10231;47.702;9.826;2022-10-17T08:50:34;14.50;99.90
20141;DHT22;10231;47.702;9.826;2022-10-17T08:55:45;14.90;99.90
20141;DHT22;10231;47.702;9.826;2022-10-17T08:58:23;15.10;99.90
20141;DHT22;10231;47.702;9.826;2022-10-17T09:06:36;15.30;99.90
20141;DHT22;10231;47.702;9.826;2022-10-17T09:12:10;15.40;99.90
20141;DHT22;10231;47.702;9.826;2022-10-17T09:20:14;15.50;99.90
20141;DHT22;10231;47.702;9.826;2022-10-17T09:22:51;15.70;99.90
20141;DHT22;10231;47.702;9.826;2022-10-17T09:25:19;15.70;99.90
20141;DHT22;10231;47.702;9.826;2022-10-17T09:27:51;15.80;99.90
20141;DHT22;10231;47.702;9.826;2022-10-17T09:30:37;15.70;99.90
20141;DHT22;10231;47.702;9.826;2022-10-17T09:33:17;15.70;99.90
20141;DHT22;10231;47.702;9.826;2022-10-17T09:35:43;15.70;99.90
20141;DHT22;10231;47.702;9.826;2022-10-17T09:38:21;15.80;99.90
20141;DHT22;10231;47.702;9.826;2022-10-17T09:40:53;16.00;99.90
20141;DHT22;10231;47.702;9.826;2022-10-17T09:43:20;16.00;99.90
20141;DHT22;10231;47.702;9.826;2022-10-17T09:46:07;16.20;99.90
20141;DHT22;10231;47.702;9.826;2022-10-17T09:48:41;16.30;99.90
20141;DHT22;10231;47.702;9.826;2022-10-17T09:51:08;16.30;99.90
20141;DHT22;10231;47.702;9.826;2022-10-17T09:53:46;16.40;99.90
20141;DHT22;10231;47.702;9.826;2022-10-17T09:56:15;16.40;99.90
20141;DHT22;10231;47.702;9.826;2022-10-17T09:58:44;16.40;99.90
20141;DHT22;10231;47.702;9.826;2022-10-17T10:01:22;16.50;99.90
20141;DHT22;10231;47.702;9.826;2022-10-17T10:04:10;16.50;99.90
20141;DHT22;10231;47.702;9.826;2022-10-17T10:06:37;16.60;99.90
20141;DHT22;10231;47.702;9.826;2022-10-17T10:09:04;16.60;99.90
20141;DHT22;10231;47.702;9.826;2022-10-17T10:11:49;16.60;99.90
20141;DHT22;10231;47.702;9.826;2022-10-17T10:14:23;16.60;99.90
20141;DHT22;10231;47.702;9.826;2022-10-17T10:16:52;16.60;99.90
20141;DHT22;10231;47.702;9.826;2022-10-17T10:19:50;16.80;99.90
20141;DHT22;10231;47.702;9.826;2022-10-17T10:22:19;16.90;99.90
20141;DHT22;10231;47.702;9.826;2022-10-17T10:24:45;16.90;99.90
20141;DHT22;10231;47.702;9.826;2022-10-17T10:27:17;17.10;99.90
20141;DHT22;10231;47.702;9.826;2022-10-17T10:29:51;17.10;99.90
20141;DHT22;10231;47.702;9.826;2022-10-17T10:32:31;17.20;99.90
20141;DHT22;10231;47.702;9.826;2022-10-17T10:35:05;17.20;99.90
20141;DHT22;10231;47.702;9.826;2022-10-17T10:37:40;17.10;99.90
20141;DHT22;10231;47.702;9.826;2022-10-17T10:40:34;17.10;99.90
20141;DHT22;10231;47.702;9.826;2022-10-17T10:43:02;17.10;99.90
20141;DHT22;10231;47.702;9.826;2022-10-17T10:45:40;17.10;99.90
20141;DHT22;10231;47.702;9.826;2022-10-17T10:48:35;17.10;99.90
20141;DHT22;10231;47.702;9.826;2022-10-17T10:51:13;17.10;99.90
20141;DHT22;10231;47.702;9.826;2022-10-17T10:53:42;17.10;99.90
20141;DHT22;10231;47.702;9.826;2022-10-17T11:01:41;17.10;99.90
20141;DHT22;10231;47.702;9.826;2022-10-17T11:04:30;17.10;99.90
20141;DHT22;10231;47.702;9.826;2022-10-17T11:09:53;17.10;99.90
20141;DHT22;10231;47.702;9.826;2022-10-17T11:13:02;17.10;99.90
20141;DHT22;10231;47.702;9.826;2022-10-17T11:15:30;17.20;99.90
20141;DHT22;10231;47.702;9.826;2022-10-17T11:18:05;17.20;99.90
20141;DHT22;10231;47.702;9.826;2022-10-17T11:20:34;17.30;99.90
20141;DHT22;10231;47.702;9.826;2022-10-17T11:23:18;17.40;99.90
20141;DHT22;10231;47.702;9.826;2022-10-17T11:25:48;17.50;99.90
20141;DHT22;10231;47.702;9.826;2022-10-17T11:28:20;17.60;99.90
20141;DHT22;10231;47.702;9.826;2022-10-17T11:30:55;17.70;99.90
20141;DHT22;10231;47.702;9.826;2022-10-17T11:33:48;17.70;99.90
20141;DHT22;10231;47.702;9.826;2022-10-17T11:36:18;17.80;99.90
20141;DHT22;10231;47.702;9.826;2022-10-17T11:38:56;17.90;99.90
20141;DHT22;10231;47.702;9.826;2022-10-17T11:41:29;17.80;99.90
20141;DHT22;10231;47.702;9.826;2022-10-17T11:43:59;18.00;99.90
20141;DHT22;10231;47.702;9.826;2022-10-17T11:46:28;17.90;99.90
20141;DHT22;10231;47.702;9.826;2022-10-17T11:49:11;18.00;99.90
20141;DHT22;10231;47.702;9.826;2022-10-17T11:51:45;18.00;99.90
20141;DHT22;10231;47.702;9.826;2022-10-17T11:54:25;18.00;99.90
20141;DHT22;10231;47.702;9.826;2022-10-17T11:59:55;18.10;99.90
20141;DHT22;10231;47.702;9.826;2022-10-17T12:02:45;18.20;99.90
20141;DHT22;10231;47.702;9.826;2022-10-17T12:08:31;18.40;99.90
20141;DHT22;10231;47.702;9.826;2022-10-17T12:18:47;18.70;99.90
20141;DHT22;10231;47.702;9.826;2022-10-17T12:21:13;18.80;99.90
20141;DHT22;10231;47.702;9.826;2022-10-17T12:23:39;18.80;99.90
20141;DHT22;10231;47.702;9.826;2022-10-17T12:26:09;18.90;99.90
20141;DHT22;10231;47.702;9.826;2022-10-17T12:28:45;19.00;99.90
20141;DHT22;10231;47.702;9.826;2022-10-17T12:33:56;19.00;99.90
20141;DHT22;10231;47.702;9.826;2022-10-17T12:49:47;19.50;99.90
20141;DHT22;10231;47.702;9.826;2022-10-17T13:00:20;19.70;99.90
20141;DHT22;10231;47.702;9.826;2022-10-17T13:02:47;19.70;99.90
20141;DHT22;10231;47.702;9.826;2022-10-17T13:05:27;19.80;99.90
20141;DHT22;10231;47.702;9.826;2022-10-17T13:07:55;19.90;99.90
20141;DHT22;10231;47.702;9.826;2022-10-17T13:10:27;20.00;99.90
20141;DHT22;10231;47.702;9.826;2022-10-17T13:13:04;20.30;99.90
20141;DHT22;10231;47.702;9.826;2022-10-17T13:15:31;20.40;99.90
20141;DHT22;10231;47.702;9.826;2022-10-17T13:17:59;20.60;99.90
20141;DHT22;10231;47.702;9.826;2022-10-17T13:20:28;20.80;99.90
20141;DHT22;10231;47.702;9.826;2022-10-17T13:22:55;20.90;99.90
20141;DHT22;10231;47.702;9.826;2022-10-17T13:25:22;21.10;99.90
20141;DHT22;10231;47.702;9.826;2022-10-17T13:27:49;21.30;99.90
20141;DHT22;10231;47.702;9.826;2022-10-17T13:30:25;21.30;99.90
20141;DHT22;10231;47.702;9.826;2022-10-17T13:32:51;21.40;99.90
20141;DHT22;10231;47.702;9.826;2022-10-17T13:37:51;21.70;99.90
20141;DHT22;10231;47.702;9.826;2022-10-17T13:40:20;21.80;99.90
20141;DHT22;10231;47.702;9.826;2022-10-17T13:42:46;22.00;99.90
20141;DHT22;10231;47.702;9.826;2022-10-17T13:45:23;22.20;99.90
20141;DHT22;10231;47.702;9.826;2022-10-17T13:47:50;22.30;99.90
20141;DHT22;10231;47.702;9.826;2022-10-17T13:50:23;22.50;99.90
20141;DHT22;10231;47.702;9.826;2022-10-17T13:53:18;22.70;99.90
20141;DHT22;10231;47.702;9.826;2022-10-17T13:56:01;22.90;99.90
20141;DHT22;10231;47.702;9.826;2022-10-17T13:58:47;23.20;99.90
20141;DHT22;10231;47.702;9.826;2022-10-17T14:01:13;23.40;99.90
20141;DHT22;10231;47.702;9.826;2022-10-17T14:03:46;23.50;99.90
20141;DHT22;10231;47.702;9.826;2022-10-17T14:06:29;23.60;99.90
20141;DHT22;10231;47.702;9.826;2022-10-17T14:09:06;23.50;99.90
20141;DHT22;10231;47.702;9.826;2022-10-17T14:11:43;23.50;99.90
20141;DHT22;10231;47.702;9.826;2022-10-17T14:14:21;23.60;99.90
20141;DHT22;10231;47.702;9.826;2022-10-17T14:16:47;23.90;99.90
20141;DHT22;10231;47.702;9.826;2022-10-17T14:19:26;24.00;99.90
20141;DHT22;10231;47.702;9.826;2022-10-17T14:21:54;24.20;99.90
20141;DHT22;10231;47.702;9.826;2022-10-17T14:24:27;24.30;99.90
20141;DHT22;10231;47.702;9.826;2022-10-17T14:26:58;24.60;99.90
20141;DHT22;10231;47.702;9.826;2022-10-17T14:29:29;25.10;99.90
20141;DHT22;10231;47.702;9.826;2022-10-17T14:32:01;25.60;99.90
20141;DHT22;10231;47.702;9.826;2022-10-17T14:34:33;26.10;99.90
20141;DHT22;10231;47.702;9.826;2022-10-17T14:37:00;27.00;98.20
20141;DHT22;10231;47.702;9.826;2022-10-17T14:39:27;27.70;96.70
20141;DHT22;10231;47.702;9.826;2022-10-17T14:41:54;27.90;96.10
20141;DHT22;10231;47.702;9.826;2022-10-17T14:44:24;27.70;96.60
20141;DHT22;10231;47.702;9.826;2022-10-17T14:46:53;27.30;95.40
20141;DHT22;10231;47.702;9.826;2022-10-17T14:49:41;27.20;95.20
20141;DHT22;10231;47.702;9.826;2022-10-17T14:52:23;26.80;96.00
20141;DHT22;10231;47.702;9.826;2022-10-17T14:54:49;26.70;97.30
20141;DHT22;10231;47.702;9.826;2022-10-17T14:59:56;26.90;95.40
20141;DHT22;10231;47.702;9.826;2022-10-17T15:02:23;27.50;94.50
20141;DHT22;10231;47.702;9.826;2022-10-17T15:04:49;27.60;94.30
20141;DHT22;10231;47.702;9.826;2022-10-17T15:07:16;27.40;94.00
20141;DHT22;10231;47.702;9.826;2022-10-17T15:09:43;26.90;94.50
20141;DHT22;10231;47.702;9.826;2022-10-17T15:12:15;26.20;97.20
20141;DHT22;10231;47.702;9.826;2022-10-17T15:14:41;25.50;96.90
20141;DHT22;10231;47.702;9.826;2022-10-17T15:17:12;25.00;97.80
20141;DHT22;10231;47.702;9.826;2022-10-17T15:19:38;24.40;98.60
20141;DHT22;10231;47.702;9.826;2022-10-17T15:22:04;24.00;98.50
20141;DHT22;10231;47.702;9.826;2022-10-17T15:24:29;23.80;99.90
20141;DHT22;10231;47.702;9.826;2022-10-17T15:26:55;23.90;99.90
20141;DHT22;10231;47.702;9.826;2022-10-17T15:29:20;24.80;98.60
20141;DHT22;10231;47.702;9.826;2022-10-17T15:31:49;25.30;97.50
20141;DHT22;10231;47.702;9.826;2022-10-17T15:34:15;25.90;97.60
20141;DHT22;10231;47.702;9.826;2022-10-17T15:36:41;26.30;95.80
20141;DHT22;10231;47.702;9.826;2022-10-17T15:39:12;26.80;95.30
20141;DHT22;10231;47.702;9.826;2022-10-17T15:41:38;27.10;93.80
20141;DHT22;10231;47.702;9.826;2022-10-17T15:44:03;26.80;94.70
20141;DHT22;10231;47.702;9.826;2022-10-17T15:46:34;26.60;93.80
20141;DHT22;10231;47.702;9.826;2022-10-17T15:49:05;26.10;94.40
20141;DHT22;10231;47.702;9.826;2022-10-17T15:51:34;25.40;96.30
20141;DHT22;10231;47.702;9.826;2022-10-17T15:54:00;25.00;96.30
20141;DHT22;10231;47.702;9.826;2022-10-17T15:56:31;24.50;97.80
20141;DHT22;10231;47.702;9.826;2022-10-17T15:59:04;23.90;99.90
20141;DHT22;10231;47.702;9.826;2022-10-17T16:01:32;23.30;99.90
20141;DHT22;10231;47.702;9.826;2022-10-17T16:03:58;22.80;99.90
20141;DHT22;10231;47.702;9.826;2022-10-17T16:06:24;22.40;99.90
20141;DHT22;10231;47.702;9.826;2022-10-17T16:08:50;22.00;99.90
20141;DHT22;10231;47.702;9.826;2022-10-17T16:11:39;21.60;99.90
20141;DHT22;10231;47.702;9.826;2022-10-17T16:14:11;21.40;99.90
20141;DHT22;10231;47.702;9.826;2022-10-17T16:16:36;21.10;99.90
20141;DHT22;10231;47.702;9.826;2022-10-17T16:19:02;20.90;99.90
20141;DHT22;10231;47.702;9.826;2022-10-17T16:21:30;20.70;99.90
20141;DHT22;10231;47.702;9.826;2022-10-17T16:23:57;20.40;99.90
20141;DHT22;10231;47.702;9.826;2022-10-17T16:26:23;20.20;99.90
20141;DHT22;10231;47.702;9.826;2022-10-17T16:28:49;20.10;99.90
20141;DHT22;10231;47.702;9.826;2022-10-17T16:31:26;19.90;99.90
20141;DHT22;10231;47.702;9.826;2022-10-17T16:33:57;19.80;99.90
20141;DHT22;10231;47.702;9.826;2022-10-17T16:36:23;19.60;99.90
20141;DHT22;10231;47.702;9.826;2022-10-17T16:38:48;19.40;99.90
20141;DHT22;10231;47.702;9.826;2022-10-17T16:41:27;19.30;99.90
20141;DHT22;10231;47.702;9.826;2022-10-17T16:43:55;19.20;99.90
20141;DHT22;10231;47.702;9.826;2022-10-17T16:46:22;19.10;99.90
20141;DHT22;10231;47.702;9.826;2022-10-17T16:48:48;18.90;99.90
20141;DHT22;10231;47.702;9.826;2022-10-17T16:51:15;18.70;99.90
20141;DHT22;10231;47.702;9.826;2022-10-17T16:53:40;18.60;99.90
20141;DHT22;10231;47.702;9.826;2022-10-17T16:56:11;18.40;99.90
20141;DHT22;10231;47.702;9.826;2022-10-17T16:58:37;18.30;99.90
20141;DHT22;10231;47.702;9.826;2022-10-17T17:01:05;18.20;99.90
20141;DHT22;10231;47.702;9.826;2022-10-17T17:03:36;18.10;99.90
20141;DHT22;10231;47.702;9.826;2022-10-17T17:06:03;18.00;99.90
20141;DHT22;10231;47.702;9.826;2022-10-17T17:08:29;17.90;99.90
20141;DHT22;10231;47.702;9.826;2022-10-17T17:10:54;17.90;99.90
20141;DHT22;10231;47.702;9.826;2022-10-17T17:13:20;17.80;99.90
20141;DHT22;10231;47.702;9.826;2022-10-17T17:15:45;17.70;99.90
20141;DHT22;10231;47.702;9.826;2022-10-17T17:18:11;17.60;99.90
20141;DHT22;10231;47.702;9.826;2022-10-17T17:20:39;17.60;99.90
20141;DHT22;10231;47.702;9.826;2022-10-17T17:23:05;17.50;99.90
20141;DHT22;10231;47.702;9.826;2022-10-17T17:25:33;17.50;99.90
20141;DHT22;10231;47.702;9.826;2022-10-17T17:28:02;17.40;99.90
20141;DHT22;10231;47.702;9.826;2022-10-17T17:30:27;17.30;99.90